createdAt,value
2023-02-22T00:00:50.044Z,28.48
2023-02-22T00:02:54.694Z,19.35
2023-02-22T00:04:56.771Z,15.90
2023-02-22T00:07:01.372Z,24.10
2023-02-22T00:09:03.621Z,28.05
2023-02-22T00:11:11.433Z,23.00
2023-02-22T00:13:14.600Z,16.00
2023-02-22T00:15:37.107Z,22.33
2023-02-22T00:17:39.278Z,26.05
2023-02-22T00:19:41.311Z,17.25
2023-02-22T00:21:44.914Z,19.30
2023-02-22T00:23:47.866Z,14.63
2023-02-22T00:25:50.752Z,18.65
2023-02-22T00:27:53.096Z,16.83
2023-02-22T00:29:56.613Z,19.65
2023-02-22T00:31:59.184Z,18.48
2023-02-22T00:36:03.851Z,19.80
2023-02-22T00:38:05.963Z,21.27
2023-02-22T00:40:12.243Z,15.55
2023-02-22T00:42:15.007Z,18.48
2023-02-22T00:44:17.155Z,16.80
2023-02-22T00:46:19.378Z,17.00
2023-02-22T00:48:21.527Z,16.70
2023-02-22T00:50:24.990Z,16.80
2023-02-22T00:52:28.157Z,25.50
2023-02-22T00:54:30.758Z,20.90
2023-02-22T00:56:36.226Z,18.27
2023-02-22T00:58:38.266Z,21.38
2023-02-22T01:00:41.788Z,25.02
2023-02-22T01:02:44.000Z,20.42
2023-02-22T01:04:46.297Z,14.73
2023-02-22T01:06:48.486Z,14.45
2023-02-22T01:08:50.638Z,18.42
2023-02-22T01:10:52.799Z,13.85
2023-02-22T01:12:55.115Z,20.90
2023-02-22T01:14:58.314Z,13.85
2023-02-22T01:17:00.390Z,17.30
2023-02-22T01:19:02.633Z,12.48
2023-02-22T01:21:05.279Z,19.17
2023-02-22T01:25:11.952Z,20.45
2023-02-22T01:27:14.161Z,15.15
2023-02-22T01:29:16.793Z,23.85
2023-02-22T01:33:21.346Z,13.88
2023-02-22T01:35:28.426Z,16.48
2023-02-22T01:37:31.862Z,16.77
2023-02-22T01:39:34.212Z,18.95
2023-02-22T01:41:37.298Z,12.15
2023-02-22T01:43:39.398Z,15.40
2023-02-22T01:46:03.349Z,14.43
2023-02-22T01:48:23.116Z,22.92
2023-02-22T01:50:25.250Z,15.30
2023-02-22T01:52:27.334Z,19.67
2023-02-22T01:54:42.296Z,20.08
2023-02-22T01:57:23.328Z,17.88
2023-02-22T01:59:25.482Z,15.30
2023-02-22T02:01:27.701Z,16.30
2023-02-22T02:03:33.296Z,17.02
2023-02-22T02:05:35.382Z,25.00
2023-02-22T02:07:37.540Z,21.40
2023-02-22T02:09:48.592Z,17.52
2023-02-22T02:11:51.079Z,16.02
2023-02-22T02:13:55.252Z,11.63
2023-02-22T02:15:57.444Z,16.55
2023-02-22T02:18:01.683Z,15.27
2023-02-22T02:20:11.993Z,14.90
2023-02-22T02:22:32.286Z,12.90
2023-02-22T02:25:24.263Z,20.02
2023-02-22T02:27:28.706Z,16.60
2023-02-22T02:30:09.793Z,13.05
2023-02-22T02:32:44.692Z,13.57
2023-02-22T02:35:06.253Z,14.88
2023-02-22T02:37:17.268Z,13.18
2023-02-22T02:39:31.196Z,11.27
2023-02-22T02:41:52.075Z,13.27
2023-02-22T02:44:35.730Z,18.13
2023-02-22T02:47:22.628Z,15.75
2023-02-22T02:49:33.065Z,14.43
2023-02-22T02:51:40.236Z,14.65
2023-02-22T02:53:45.534Z,14.18
2023-02-22T02:55:47.694Z,12.15
2023-02-22T02:57:49.742Z,15.77
2023-02-22T02:59:51.764Z,12.90
2023-02-22T03:02:15.041Z,12.90
2023-02-22T03:07:11.181Z,14.35
2023-02-22T03:09:50.808Z,15.02
2023-02-22T03:12:21.704Z,16.42
2023-02-22T03:15:18.276Z,19.27
2023-02-22T03:18:03.108Z,15.35
2023-02-22T03:20:32.396Z,19.25
2023-02-22T03:22:44.269Z,16.92
2023-02-22T03:24:53.119Z,11.48
2023-02-22T03:27:04.510Z,15.63
2023-02-22T03:29:07.005Z,21.10
2023-02-22T03:31:15.216Z,13.95
2023-02-22T03:33:36.763Z,20.45
2023-02-22T03:35:44.661Z,15.65
2023-02-22T03:37:48.246Z,15.10
2023-02-22T03:39:51.887Z,14.77
2023-02-22T03:41:54.015Z,15.73
2023-02-22T03:44:03.988Z,13.10
2023-02-22T03:46:06.660Z,10.88
2023-02-22T03:48:20.937Z,18.50
2023-02-22T03:50:26.878Z,12.57
2023-02-22T03:52:28.946Z,13.98
2023-02-22T03:54:31.260Z,17.58
2023-02-22T03:56:37.991Z,14.45
2023-02-22T03:58:40.710Z,23.25
2023-02-22T04:00:44.632Z,16.50
2023-02-22T04:02:46.871Z,24.13
2023-02-22T04:04:48.951Z,17.60
2023-02-22T04:06:51.655Z,18.40
2023-02-22T04:10:55.929Z,17.55
2023-02-22T04:12:58.967Z,17.35
2023-02-22T04:15:01.641Z,23.80
2023-02-22T04:19:06.485Z,14.57
2023-02-22T04:23:11.462Z,18.30
2023-02-22T04:25:14.650Z,14.88
2023-02-22T04:27:16.722Z,16.27
2023-02-22T04:29:18.730Z,24.70
2023-02-22T04:31:20.884Z,21.17
2023-02-22T04:33:23.011Z,28.17
2023-02-22T04:35:25.075Z,22.50
2023-02-22T04:37:27.173Z,17.23
2023-02-22T04:39:29.317Z,17.30
2023-02-22T04:41:31.657Z,26.70
2023-02-22T04:43:33.793Z,19.95
2023-02-22T04:45:36.163Z,23.92
2023-02-22T04:47:38.339Z,25.85
2023-02-22T04:49:40.483Z,27.27
2023-02-22T04:51:42.641Z,38.38
2023-02-22T04:53:44.705Z,25.92
2023-02-22T04:55:47.080Z,24.42
2023-02-22T04:57:49.113Z,27.60
2023-02-22T04:59:51.366Z,21.65
2023-02-22T05:01:53.551Z,24.63
2023-02-22T05:03:55.600Z,21.00
2023-02-22T05:05:57.753Z,17.90
2023-02-22T05:07:59.856Z,21.05
2023-02-22T05:10:03.109Z,17.05
2023-02-22T05:12:05.628Z,12.43
2023-02-22T05:14:07.963Z,18.85
2023-02-22T05:16:10.200Z,14.68
2023-02-22T05:18:12.261Z,16.83
2023-02-22T05:20:35.361Z,15.23
2023-02-22T05:22:37.408Z,15.68
2023-02-22T05:24:39.463Z,13.18
2023-02-22T05:26:44.707Z,13.80
2023-02-22T05:28:46.755Z,20.60
2023-02-22T05:30:48.797Z,17.23
2023-02-22T05:32:51.891Z,18.05
2023-02-22T05:34:53.948Z,12.43
2023-02-22T05:36:56.001Z,11.93
2023-02-22T05:38:58.128Z,14.32
2023-02-22T05:41:00.664Z,16.67
2023-02-22T05:43:02.977Z,24.23
2023-02-22T05:45:05.693Z,14.68
2023-02-22T05:49:09.772Z,17.67
2023-02-22T05:51:12.179Z,24.90
2023-02-22T05:53:14.474Z,21.00
2023-02-22T05:55:19.317Z,15.80
2023-02-22T05:57:21.422Z,17.13
2023-02-22T05:59:23.577Z,15.75
2023-02-22T06:03:28.526Z,19.25
2023-02-22T06:05:31.132Z,17.90
2023-02-22T06:09:35.203Z,19.52
2023-02-22T06:11:37.450Z,19.25
2023-02-22T06:13:39.826Z,14.52
2023-02-22T06:15:41.982Z,15.98
2023-02-22T06:17:44.284Z,21.50
2023-02-22T06:19:46.323Z,15.13
2023-02-22T06:21:56.057Z,12.05
2023-02-22T06:23:58.133Z,17.35
2023-02-22T06:26:00.190Z,14.70
2023-02-22T06:28:02.514Z,19.02
2023-02-22T06:30:05.505Z,16.40
2023-02-22T06:32:07.660Z,16.63
2023-02-22T06:34:13.599Z,14.80
2023-02-22T06:36:15.643Z,18.05
2023-02-22T06:38:24.658Z,15.93
2023-02-22T06:40:29.564Z,18.13
2023-02-22T06:42:31.721Z,16.58
2023-02-22T06:44:33.872Z,13.13
2023-02-22T06:46:36.161Z,13.23
2023-02-22T06:48:40.229Z,27.17
2023-02-22T06:50:42.293Z,19.45
2023-02-22T06:52:45.518Z,18.60
2023-02-22T06:54:47.982Z,23.75
2023-02-22T06:56:50.043Z,21.35
2023-02-22T06:58:52.193Z,20.77
2023-02-22T07:00:54.539Z,15.57
2023-02-22T07:02:56.854Z,21.30
2023-02-22T07:05:00.438Z,18.77
2023-02-22T07:07:02.491Z,22.00
2023-02-22T07:09:04.672Z,22.05
2023-02-22T07:11:06.933Z,20.75
2023-02-22T07:13:09.384Z,20.73
2023-02-22T07:15:11.417Z,26.35
2023-02-22T07:17:13.529Z,31.40
2023-02-22T07:19:15.646Z,22.15
2023-02-22T07:21:19.276Z,22.38
2023-02-22T07:23:21.777Z,27.00
2023-02-22T07:25:24.285Z,27.83
2023-02-22T07:27:26.418Z,36.22
2023-02-22T07:29:28.602Z,43.88
2023-02-22T07:31:38.972Z,42.22
2023-02-22T07:33:41.084Z,39.75
2023-02-22T07:35:48.168Z,34.25
2023-02-22T07:37:50.344Z,31.15
2023-02-22T07:39:52.402Z,24.08
2023-02-22T07:41:54.626Z,25.25
2023-02-22T07:43:56.742Z,29.35
2023-02-22T07:46:00.315Z,21.30
2023-02-22T07:48:03.904Z,22.38
2023-02-22T07:50:06.324Z,21.33
2023-02-22T07:52:08.416Z,23.60
2023-02-22T07:54:10.533Z,29.80
2023-02-22T07:56:12.709Z,32.90
2023-02-22T07:58:15.697Z,35.67
2023-02-22T08:00:24.717Z,46.67
2023-02-22T08:02:27.062Z,57.70
2023-02-22T08:04:29.222Z,52.05
2023-02-22T08:06:32.179Z,35.63
2023-02-22T08:08:34.674Z,32.00
2023-02-22T08:10:36.915Z,22.50
2023-02-22T08:12:39.062Z,20.73
2023-02-22T08:14:41.160Z,23.23
2023-02-22T08:16:43.290Z,24.60
2023-02-22T08:18:45.511Z,22.33
2023-02-22T08:20:49.497Z,21.55
2023-02-22T08:22:51.817Z,22.73
2023-02-22T08:24:54.825Z,24.58
2023-02-22T08:28:59.022Z,18.55
2023-02-22T08:31:01.567Z,16.48
2023-02-22T08:33:04.336Z,17.38
2023-02-22T08:35:07.075Z,16.98
2023-02-22T08:37:09.243Z,18.23
2023-02-22T08:39:13.897Z,19.42
2023-02-22T08:41:16.394Z,22.95
2023-02-22T08:43:19.723Z,26.77
2023-02-22T08:45:21.858Z,17.30
2023-02-22T08:47:23.916Z,24.33
2023-02-22T08:49:26.049Z,25.58
2023-02-22T08:51:28.151Z,28.10
2023-02-22T08:53:32.391Z,21.52
2023-02-22T08:55:38.057Z,16.60
2023-02-22T08:57:40.125Z,13.73
2023-02-22T08:59:42.898Z,16.65
2023-02-22T09:01:45.220Z,12.98
2023-02-22T09:03:49.111Z,12.18
2023-02-22T09:05:51.354Z,15.77
2023-02-22T09:07:55.630Z,13.98
2023-02-22T09:09:57.700Z,13.10
2023-02-22T09:11:59.789Z,17.33
2023-02-22T09:14:02.069Z,12.80
2023-02-22T09:16:04.514Z,16.52
2023-02-22T09:18:08.554Z,15.80
2023-02-22T09:20:12.517Z,15.50
2023-02-22T09:22:14.578Z,14.15
2023-02-22T09:24:16.637Z,13.88
2023-02-22T09:26:18.786Z,11.52
2023-02-22T09:28:22.505Z,12.63
2023-02-22T09:30:36.707Z,7.60
2023-02-22T09:32:42.819Z,7.32
2023-02-22T09:34:47.646Z,5.45
2023-02-22T09:36:51.275Z,7.00
2023-02-22T09:38:57.238Z,4.22
2023-02-22T09:41:16.502Z,7.63
2023-02-22T09:43:49.463Z,6.93
2023-02-22T09:46:13.601Z,5.75
2023-02-22T09:48:21.999Z,5.53
2023-02-22T09:50:42.343Z,6.65
2023-02-22T09:53:07.472Z,4.65
2023-02-22T09:55:34.296Z,5.57
2023-02-22T09:57:43.404Z,9.15
2023-02-22T10:00:14.436Z,6.45
2023-02-22T10:02:24.667Z,4.18
2023-02-22T10:04:41.455Z,10.00
2023-02-22T10:06:51.109Z,5.22
2023-02-22T10:08:58.402Z,5.55
2023-02-22T10:11:12.242Z,8.38
2023-02-22T10:13:25.361Z,9.95
2023-02-22T10:15:34.969Z,6.90
2023-02-22T10:17:52.860Z,6.38
2023-02-22T10:20:17.465Z,6.65
2023-02-22T10:22:51.614Z,4.45
2023-02-22T10:25:19.333Z,6.68
2023-02-22T10:27:28.777Z,4.10
2023-02-22T10:29:51.429Z,4.07
2023-02-22T10:32:05.073Z,5.32
2023-02-22T10:34:21.372Z,3.95
2023-02-22T10:36:23.450Z,5.43
2023-02-22T10:38:30.830Z,3.72
2023-02-22T10:40:32.869Z,2.83
2023-02-22T10:42:35.518Z,4.00
2023-02-22T10:44:38.770Z,9.38
2023-02-22T10:46:42.050Z,2.85
2023-02-22T10:48:46.041Z,6.88
2023-02-22T10:50:48.183Z,4.07
2023-02-22T10:52:50.199Z,5.82
2023-02-22T10:54:52.465Z,5.00
2023-02-22T10:56:55.885Z,3.70
2023-02-22T10:59:02.559Z,2.78
2023-02-22T11:01:37.848Z,2.88
2023-02-22T11:03:39.933Z,5.30
2023-02-22T11:05:42.060Z,4.85
2023-02-22T11:07:44.110Z,3.20
2023-02-22T11:10:06.621Z,7.53
2023-02-22T11:12:18.513Z,5.53
2023-02-22T11:14:30.423Z,4.63
2023-02-22T11:16:52.751Z,4.13
2023-02-22T11:19:15.956Z,8.00
2023-02-22T11:23:24.893Z,6.38
2023-02-22T11:25:30.330Z,9.52
2023-02-22T11:27:41.289Z,8.30
2023-02-22T11:29:43.882Z,9.85
2023-02-22T11:31:46.561Z,4.45
2023-02-22T11:36:04.898Z,10.82
2023-02-22T11:38:53.080Z,6.32
2023-02-22T11:41:23.065Z,7.60
2023-02-22T11:43:25.157Z,4.68
2023-02-22T11:45:27.661Z,5.95
2023-02-22T11:47:29.707Z,4.85
2023-02-22T11:49:39.365Z,4.80
2023-02-22T11:51:53.870Z,6.45
2023-02-22T11:54:25.423Z,6.00
2023-02-22T11:56:47.165Z,3.55
2023-02-22T11:59:15.593Z,2.80
2023-02-22T12:01:34.596Z,3.90
2023-02-22T12:03:58.557Z,2.85
2023-02-22T12:06:24.829Z,2.70
2023-02-22T12:08:47.348Z,5.15
2023-02-22T12:10:57.886Z,3.20
2023-02-22T12:13:51.353Z,4.13
2023-02-22T12:16:11.805Z,2.67
2023-02-22T12:18:22.324Z,3.28
2023-02-22T12:20:32.315Z,4.40
2023-02-22T12:22:38.010Z,3.72
2023-02-22T12:25:08.604Z,5.38
2023-02-22T12:27:20.353Z,6.53
2023-02-22T12:29:31.362Z,5.18
2023-02-22T12:31:57.619Z,4.05
2023-02-22T12:34:21.962Z,3.20
2023-02-22T12:36:26.956Z,4.20
2023-02-22T12:38:44.399Z,4.65
2023-02-22T12:41:20.979Z,5.65
2023-02-22T12:43:25.986Z,6.95
2023-02-22T12:45:43.329Z,3.80
2023-02-22T12:47:55.198Z,3.58
2023-02-22T12:50:22.514Z,4.97
2023-02-22T12:52:48.526Z,3.80
2023-02-22T12:55:34.017Z,5.63
2023-02-22T12:58:06.596Z,8.45
2023-02-22T13:00:42.056Z,3.30
2023-02-22T13:02:48.328Z,4.60
2023-02-22T13:04:50.386Z,5.97
2023-02-22T13:07:14.339Z,5.53
2023-02-22T13:09:59.707Z,4.32
2023-02-22T13:12:07.513Z,5.85
2023-02-22T13:14:33.424Z,5.03
2023-02-22T13:17:07.255Z,9.52
2023-02-22T13:19:27.085Z,4.88
2023-02-22T13:21:46.973Z,6.07
2023-02-22T13:24:14.947Z,5.43
2023-02-22T13:26:32.873Z,4.93
2023-02-22T13:28:39.141Z,4.45
2023-02-22T13:30:49.726Z,4.80
2023-02-22T13:33:06.588Z,2.92
2023-02-22T13:35:23.200Z,3.67
2023-02-22T13:38:20.369Z,3.65
2023-02-22T13:40:47.372Z,7.38
2023-02-22T13:43:57.026Z,3.47
2023-02-22T13:46:24.827Z,4.32
2023-02-22T13:48:28.260Z,7.85
2023-02-22T13:51:00.587Z,6.32
2023-02-22T13:53:10.143Z,4.70
2023-02-22T13:55:34.539Z,4.93
2023-02-22T13:57:50.904Z,6.85
2023-02-22T14:00:14.822Z,6.38
2023-02-22T14:02:53.939Z,6.35
2023-02-22T14:04:55.947Z,5.88
2023-02-22T14:07:02.122Z,5.60
2023-02-22T14:09:09.569Z,3.97
2023-02-22T14:11:14.354Z,4.45
2023-02-22T14:13:18.667Z,5.35
2023-02-22T14:15:30.908Z,3.72
2023-02-22T14:17:33.324Z,7.18
2023-02-22T14:19:35.429Z,4.32
2023-02-22T14:21:37.540Z,5.40
2023-02-22T14:23:44.367Z,5.28
2023-02-22T14:25:46.438Z,5.90
2023-02-22T14:27:48.753Z,4.28
2023-02-22T14:30:00.573Z,5.25
2023-02-22T14:32:10.822Z,4.97
2023-02-22T14:34:16.180Z,3.83
2023-02-22T14:36:20.904Z,4.25
2023-02-22T14:38:23.005Z,4.82
2023-02-22T14:40:32.661Z,5.00
2023-02-22T14:42:36.187Z,4.55
2023-02-22T14:44:59.844Z,5.50
2023-02-22T14:47:05.135Z,6.18
2023-02-22T14:49:10.141Z,6.80
2023-02-22T14:51:44.673Z,7.05
2023-02-22T14:53:49.459Z,8.60
2023-02-22T14:56:07.049Z,10.93
2023-02-22T14:58:46.045Z,11.20
2023-02-22T15:00:50.497Z,7.03
2023-02-22T15:02:57.403Z,5.55
2023-02-22T15:05:00.456Z,6.80
2023-02-22T15:07:30.660Z,6.60
2023-02-22T15:09:37.653Z,9.10
2023-02-22T15:11:40.374Z,7.57
2023-02-22T15:13:53.876Z,6.72
2023-02-22T15:16:04.129Z,7.30
2023-02-22T15:18:12.987Z,6.65
2023-02-22T15:20:16.702Z,7.40
2023-02-22T15:22:26.488Z,6.30
2023-02-22T15:24:31.072Z,6.07
2023-02-22T15:26:42.463Z,8.02
2023-02-22T15:28:48.552Z,6.68
2023-02-22T15:30:53.612Z,9.57
2023-02-22T15:33:04.196Z,9.88
2023-02-22T15:35:23.520Z,11.65
2023-02-22T15:37:28.054Z,8.70
2023-02-22T15:39:34.631Z,6.88
2023-02-22T15:42:21.081Z,6.13
2023-02-22T15:44:43.820Z,7.28
2023-02-22T15:47:06.630Z,9.10
2023-02-22T15:49:20.060Z,8.10
2023-02-22T15:51:22.142Z,7.00
2023-02-22T15:53:30.410Z,7.22
2023-02-22T15:55:36.277Z,6.22
2023-02-22T15:57:38.408Z,7.82
2023-02-22T15:59:47.545Z,7.10
2023-02-22T16:01:51.631Z,6.50
2023-02-22T16:03:56.748Z,7.65
2023-02-22T16:05:58.860Z,10.10
2023-02-22T16:08:00.976Z,9.18
2023-02-22T16:10:09.192Z,8.30
2023-02-22T16:12:31.766Z,6.28
2023-02-22T16:14:36.438Z,8.73
2023-02-22T16:16:43.291Z,6.57
2023-02-22T16:18:45.389Z,7.47
2023-02-22T16:20:47.671Z,7.00
2023-02-22T16:22:50.050Z,6.00
2023-02-22T16:24:52.812Z,8.82
2023-02-22T16:27:23.740Z,9.88
2023-02-22T16:29:26.575Z,13.68
2023-02-22T16:31:39.582Z,6.68
2023-02-22T16:33:43.512Z,8.57
2023-02-22T16:35:52.165Z,10.38
2023-02-22T16:38:03.382Z,9.93
2023-02-22T16:40:13.997Z,7.90
2023-02-22T16:42:20.155Z,8.48
2023-02-22T16:44:25.181Z,11.55
2023-02-22T16:46:27.275Z,11.52
2023-02-22T16:48:32.774Z,8.98
2023-02-22T16:50:34.910Z,8.95
2023-02-22T16:52:36.970Z,7.20
2023-02-22T16:54:45.685Z,10.52
2023-02-22T16:56:47.753Z,11.10
2023-02-22T16:58:50.765Z,14.18
2023-02-22T17:00:52.802Z,11.05
2023-02-22T17:02:54.870Z,13.40
2023-02-22T17:04:57.271Z,11.35
2023-02-22T17:06:59.336Z,11.82
2023-02-22T17:09:01.622Z,13.35
2023-02-22T17:11:04.206Z,11.68
2023-02-22T17:13:21.280Z,16.60
2023-02-22T17:15:32.568Z,12.30
2023-02-22T17:17:34.698Z,13.07
2023-02-22T17:19:37.690Z,12.80
2023-02-22T17:21:40.299Z,10.45
2023-02-22T17:23:46.031Z,12.15
2023-02-22T17:25:59.682Z,14.18
2023-02-22T17:28:01.793Z,17.52
2023-02-22T17:30:04.892Z,15.82
2023-02-22T17:32:07.358Z,14.02
2023-02-22T17:34:09.498Z,13.40
2023-02-22T17:36:13.334Z,17.77
2023-02-22T17:38:18.564Z,12.23
2023-02-22T17:40:20.776Z,12.35
2023-02-22T17:42:22.844Z,13.57
2023-02-22T17:44:26.339Z,14.05
2023-02-22T17:46:28.548Z,15.63
2023-02-22T17:48:30.658Z,10.20
2023-02-22T17:50:32.716Z,14.40
2023-02-22T17:52:34.871Z,13.98
2023-02-22T17:54:36.895Z,16.38
2023-02-22T17:56:38.966Z,14.10
2023-02-22T17:58:41.450Z,19.20
2023-02-22T18:00:49.021Z,15.25
2023-02-22T18:02:51.930Z,17.60
2023-02-22T18:04:54.056Z,19.13
2023-02-22T18:06:56.108Z,17.17
2023-02-22T18:08:58.963Z,15.32
2023-02-22T18:11:05.298Z,14.50
2023-02-22T18:13:07.345Z,19.08
2023-02-22T18:15:15.102Z,18.95
2023-02-22T18:17:17.248Z,16.35
2023-02-22T18:19:20.990Z,20.05
2023-02-22T18:21:26.867Z,13.98
2023-02-22T18:23:30.927Z,9.32
2023-02-22T18:25:33.400Z,13.73
2023-02-22T18:27:36.572Z,13.05
2023-02-22T18:29:38.698Z,18.10
2023-02-22T18:31:40.822Z,13.23
2023-02-22T18:33:44.120Z,13.25
2023-02-22T18:35:50.039Z,11.50
2023-02-22T18:37:52.054Z,11.77
2023-02-22T18:39:57.742Z,17.67
2023-02-22T18:41:59.935Z,14.10
2023-02-22T18:44:03.341Z,12.45
2023-02-22T18:46:19.692Z,16.45
2023-02-22T18:48:22.051Z,10.35
2023-02-22T18:50:24.119Z,9.45
2023-02-22T18:52:26.262Z,9.27
2023-02-22T18:54:28.500Z,11.88
2023-02-22T18:56:30.715Z,14.85
2023-02-22T18:58:32.944Z,16.75
2023-02-22T19:00:35.292Z,18.88
2023-02-22T19:02:37.549Z,22.17
2023-02-22T19:04:40.007Z,12.38
2023-02-22T19:06:44.860Z,11.73
2023-02-22T19:08:47.156Z,13.45
2023-02-22T19:10:49.784Z,13.93
